Time,TemperatureF,DewpointF,PressureIn,WindDirection,WindDirectionDegrees,WindSpeedMPH,WindSpeedGustMPH,Humidity,HourlyPrecipIn,Conditions,Clouds,dailyrainin,SoftwareType,DateUTC
2013-03-24 00:03:00,47.6,40.4,30.08,ENE,75,0.0,0.0,76,0.00,CLR,,0.00,WeatherDisplay:10.37,2013-03-24 07:03:00,
2013-03-24 00:08:00,47.3,40.5,30.08,ENE,75,0.0,0.0,77,0.00,CLR,,0.00,WeatherDisplay:10.37,2013-03-24 07:08:00,
2013-03-24 00:13:00,46.9,40.4,30.08,ENE,75,0.0,0.0,78,0.00,CLR,,0.00,WeatherDisplay:10.37,2013-03-24 07:13:00,
2013-03-24 00:18:00,46.8,40.3,30.08,NE,44,1.1,1.1,78,0.00,CLR,,0.00,WeatherDisplay:10.37,2013-03-24 07:18:00,
2013-03-24 00:23:00,46.8,40.3,30.08,NE,44,0.0,0.0,78,0.00,CLR,,0.00,WeatherDisplay:10.37,2013-03-24 07:23:00,
2013-03-24 00:28:00,46.9,40.7,30.08,NE,44,0.0,0.0,79,0.00,CLR,,0.00,WeatherDisplay:10.37,2013-03-24 07:28:00,
2013-03-24 00:33:00,46.9,40.4,30.08,NE,44,1.1,1.1,78,0.00,CLR,,0.00,WeatherDisplay:10.37,2013-03-24 07:33:00,
2013-03-24 00:38:00,46.4,39.6,30.08,NE,41,1.1,1.1,77,0.00,CLR,,0.00,WeatherDisplay:10.37,2013-03-24 07:38:00,
2013-03-24 00:43:00,46.2,40.4,30.09,NNW,342,1.1,1.1,80,0.00,CLR,,0.00,WeatherDisplay:10.37,2013-03-24 07:43:00,
2013-03-24 00:48:00,46.3,40.1,30.08,NNW,343,0.0,0.0,79,0.00,CLR,,0.00,WeatherDisplay:10.37,2013-03-24 07:48:00,
2013-03-24 00:54:00,46.3,40.5,30.08,NNW,342,0.0,0.0,80,0.00,CLR,,0.00,WeatherDisplay:10.37,2013-03-24 07:54:00,
2013-03-24 00:59:00,46.3,40.5,30.08,NNW,343,0.0,0.0,80,0.00,CLR,,0.00,WeatherDisplay:10.37,2013-03-24 07:59:00,
2013-03-24 01:04:00,46.4,40.6,30.08,NNW,342,0.0,0.0,80,0.00,CLR,,0.00,WeatherDisplay:10.37,2013-03-24 08:04:00,
2013-03-24 01:09:00,46.3,40.8,30.08,NNW,343,1.1,1.1,81,0.00,CLR,,0.00,WeatherDisplay:10.37,2013-03-24 08:09:00,
2013-03-24 01:14:00,46.2,40.4,30.09,NNW,342,1.1,1.1,80,0.00,CLR,,0.00,WeatherDisplay:10.37,2013-03-24 08:14:00,
2013-03-24 01:19:00,45.5,39.4,30.09,ENE,72,2.3,2.3,79,0.00,CLR,,0.00,WeatherDisplay:10.37,2013-03-24 08:19:00,
2013-03-24 01:25:00,45.3,39.8,30.08,ENE,71,2.3,2.3,81,0.00,CLR,,0.00,WeatherDisplay:10.37,2013-03-24 08:25:00,
2013-03-24 01:30:00,44.8,40.0,30.09,ENE,71,0.0,0.0,83,0.00,CLR,,0.00,WeatherDisplay:10.37,2013-03-24 08:30:00,
2013-03-24 01:35:00,44.8,40.0,30.09,ENE,71,0.0,0.0,83,0.00,CLR,,0.00,WeatherDisplay:10.37,2013-03-24 08:35:00,
2013-03-24 01:40:00,44.8,40.0,30.09,ENE,71,0.0,0.0,83,0.00,CLR,,0.00,WeatherDisplay:10.37,2013-03-24 08:40:00,
2013-03-24 01:45:00,44.7,39.9,30.09,ENE,71,1.1,1.1,83,0.00,CLR,,0.00,WeatherDisplay:10.37,2013-03-24 08:45:00,
2013-03-24 01:50:00,44.5,40.0,30.08,ENE,71,0.0,0.0,84,0.00,CLR,,0.00,WeatherDisplay:10.37,2013-03-24 08:50:00,
2013-03-24 01:55:00,44.4,39.9,30.08,ENE,71,0.0,0.0,84,0.00,CLR,,0.00,WeatherDisplay:10.37,2013-03-24 08:55:00,
2013-03-24 02:00:00,44.6,40.1,30.08,ENE,71,0.0,0.0,84,0.00,CLR,,0.00,WeatherDisplay:10.37,2013-03-24 09:00:00,
2013-03-24 02:05:00,44.6,39.8,30.08,ENE,71,0.0,0.0,83,0.00,CLR,,0.00,WeatherDisplay:10.37,2013-03-24 09:05:00,
2013-03-24 02:10:00,44.2,39.4,30.09,ENE,71,0.0,0.0,83,0.00,CLR,,0.00,WeatherDisplay:10.37,2013-03-24 09:10:00,
2013-03-24 02:15:00,44.1,39.9,30.09,NE,50,1.1,1.1,85,0.00,CLR,,0.00,WeatherDisplay:10.37,2013-03-24 09:15:00,
2013-03-24 02:20:00,43.9,39.7,30.09,NE,50,1.1,1.1,85,0.00,CLR,,0.00,WeatherDisplay:10.37,2013-03-24 09:20:00,
2013-03-24 02:25:00,43.9,39.7,30.09,NNW,343,2.3,2.3,85,0.00,CLR,,0.00,WeatherDisplay:10.37,2013-03-24 09:25:00,
2013-03-24 02:30:00,43.6,39.1,30.09,NNW,332,2.3,2.3,84,0.00,CLR,,0.00,WeatherDisplay:10.37,2013-03-24 09:30:00,
2013-03-24 02:35:00,43.3,39.1,30.09,NNW,340,1.1,1.1,85,0.00,CLR,,0.00,WeatherDisplay:10.37,2013-03-24 09:35:00,
2013-03-24 02:40:00,43.0,38.8,30.09,NNW,340,1.1,0.0,85,0.00,CLR,,0.00,WeatherDisplay:10.37,2013-03-24 09:40:00,
2013-03-24 02:45:00,42.6,38.7,30.09,NNW,340,0.0,0.0,86,0.00,CLR,,0.00,WeatherDisplay:10.37,2013-03-24 09:45:00,
2013-03-24 02:50:00,42.6,39.3,30.09,NNW,340,0.0,0.0,88,0.00,CLR,,0.00,WeatherDisplay:10.37,2013-03-24 09:50:00,
2013-03-24 02:55:00,42.7,39.4,30.09,NNW,334,0.0,0.0,88,0.00,CLR,,0.00,WeatherDisplay:10.37,2013-03-24 09:55:00,
2013-03-24 03:00:00,42.7,39.4,30.09,NNW,334,0.0,0.0,88,0.00,CLR,,0.00,WeatherDisplay:10.37,2013-03-24 10:00:00,
2013-03-24 03:05:00,42.7,39.4,30.09,North,4,0.0,0.1,88,0.00,CLR,,0.00,WeatherDisplay:10.37,2013-03-24 10:05:00,
2013-03-24 03:10:00,42.6,39.3,30.09,North,4,0.0,0.3,88,0.00,CLR,,0.00,WeatherDisplay:10.37,2013-03-24 10:10:00,
2013-03-24 03:15:00,43.1,39.8,30.08,North,4,1.1,1.1,88,0.00,CLR,,0.00,WeatherDisplay:10.37,2013-03-24 10:15:00,
2013-03-24 03:20:00,43.2,39.9,30.08,North,4,0.0,0.0,88,0.00,CLR,,0.00,WeatherDisplay:10.37,2013-03-24 10:20:00,
2013-03-24 03:25:00,43.1,39.8,30.08,North,4,0.0,0.0,88,0.00,CLR,,0.00,WeatherDisplay:10.37,2013-03-24 10:25:00,
2013-03-24 03:30:00,43.2,39.6,30.08,North,4,0.0,0.0,87,0.00,CLR,,0.00,WeatherDisplay:10.37,2013-03-24 10:30:00,
2013-03-24 03:35:00,42.9,39.0,30.07,North,4,1.1,1.1,86,0.00,CLR,,0.00,WeatherDisplay:10.37,2013-03-24 10:35:00,
2013-03-24 03:40:00,41.9,37.7,30.07,NNE,16,2.3,2.3,85,0.00,CLR,,0.00,WeatherDisplay:10.37,2013-03-24 10:40:00,
2013-03-24 03:45:00,41.6,38.3,30.08,NNE,16,1.1,1.1,88,0.00,CLR,,0.00,WeatherDisplay:10.37,2013-03-24 10:45:00,
2013-03-24 03:50:00,41.6,38.6,30.08,NNE,16,1.1,1.1,89,0.00,CLR,,0.00,WeatherDisplay:10.37,2013-03-24 10:50:00,
2013-03-24 03:55:00,41.4,38.4,30.08,NNE,16,0.0,0.0,89,0.00,CLR,,0.00,WeatherDisplay:10.37,2013-03-24 10:55:00,
2013-03-24 04:00:00,41.5,38.5,30.08,NNE,16,0.0,0.0,89,0.00,CLR,,0.00,WeatherDisplay:10.37,2013-03-24 11:00:00,
2013-03-24 04:05:00,41.6,38.6,30.08,NW,314,0.0,0.0,89,0.00,CLR,,0.00,WeatherDisplay:10.37,2013-03-24 11:05:00,
2013-03-24 04:10:00,41.7,39.0,30.08,NW,315,0.0,0.0,90,0.00,CLR,,0.00,WeatherDisplay:10.37,2013-03-24 11:10:00,
2013-03-24 04:15:00,41.7,38.7,30.08,NW,314,0.0,0.0,89,0.00,CLR,,0.00,WeatherDisplay:10.37,2013-03-24 11:15:00,
2013-03-24 04:20:00,41.5,38.5,30.08,NW,314,1.1,1.1,89,0.00,CLR,,0.00,WeatherDisplay:10.37,2013-03-24 11:20:00,
2013-03-24 04:25:00,41.5,38.5,30.08,NW,315,1.1,1.1,89,0.00,CLR,,0.00,WeatherDisplay:10.37,2013-03-24 11:25:00,
2013-03-24 04:31:00,41.4,38.4,30.08,NW,314,0.0,0.0,89,0.00,CLR,,0.00,WeatherDisplay:10.37,2013-03-24 11:31:00,
2013-03-24 04:36:00,41.1,38.1,30.07,NW,314,0.0,0.0,89,0.00,CLR,,0.00,WeatherDisplay:10.37,2013-03-24 11:36:00,
2013-03-24 04:41:00,41.1,38.1,30.07,NW,315,0.0,0.0,89,0.00,CLR,,0.00,WeatherDisplay:10.37,2013-03-24 11:41:00,
2013-03-24 04:47:00,41.0,38.3,30.07,NW,315,0.0,0.0,90,0.00,CLR,,0.00,WeatherDisplay:10.37,2013-03-24 11:47:00,
2013-03-24 04:52:00,41.1,38.4,30.07,North,356,1.1,1.1,90,0.00,CLR,,0.00,WeatherDisplay:10.37,2013-03-24 11:52:00,
2013-03-24 04:57:00,41.6,38.9,30.07,North,356,0.0,0.0,90,0.00,CLR,,0.00,WeatherDisplay:10.37,2013-03-24 11:57:00,
2013-03-24 05:02:00,41.5,38.5,30.07,North,355,0.0,0.0,89,0.00,CLR,,0.00,WeatherDisplay:10.37,2013-03-24 12:02:00,
2013-03-24 05:07:00,41.3,38.3,30.07,WNW,303,0.0,0.0,89,0.00,CLR,,0.00,WeatherDisplay:10.37,2013-03-24 12:07:00,
2013-03-24 05:12:00,41.3,38.6,30.07,NW,304,0.0,0.0,90,0.00,CLR,,0.00,WeatherDisplay:10.37,2013-03-24 12:12:00,
2013-03-24 05:17:00,41.2,38.5,30.07,NW,305,0.0,0.0,90,0.00,CLR,,0.00,WeatherDisplay:10.37,2013-03-24 12:17:00,
2013-03-24 05:23:00,41.3,38.6,30.07,NW,305,0.0,0.0,90,0.00,CLR,,0.00,WeatherDisplay:10.37,2013-03-24 12:23:00,
2013-03-24 05:28:00,41.2,38.5,30.08,NW,304,0.0,0.0,90,0.00,CLR,,0.00,WeatherDisplay:10.37,2013-03-24 12:28:00,
2013-03-24 05:33:00,41.1,38.4,30.08,NW,304,0.0,0.0,90,0.00,CLR,,0.00,WeatherDisplay:10.37,2013-03-24 12:33:00,
2013-03-24 05:38:00,41.1,38.7,30.08,NW,305,0.0,0.0,91,0.00,CLR,,0.00,WeatherDisplay:10.37,2013-03-24 12:38:00,
2013-03-24 05:43:00,41.0,38.6,30.08,NW,305,0.0,0.0,91,0.00,CLR,,0.00,WeatherDisplay:10.37,2013-03-24 12:43:00,
2013-03-24 05:48:00,40.8,38.4,30.08,NW,305,0.0,0.0,91,0.00,CLR,,0.00,WeatherDisplay:10.37,2013-03-24 12:48:00,
2013-03-24 05:53:00,40.8,38.4,30.08,NW,305,0.0,0.0,91,0.00,CLR,,0.00,WeatherDisplay:10.37,2013-03-24 12:53:00,
2013-03-24 05:58:00,40.9,38.5,30.09,NW,305,0.0,0.0,91,0.00,CLR,,0.00,WeatherDisplay:10.37,2013-03-24 12:58:00,
2013-03-24 06:03:00,40.7,38.3,30.09,NE,51,1.1,1.1,91,0.00,CLR,,0.00,WeatherDisplay:10.37,2013-03-24 13:03:00,
2013-03-24 06:08:00,40.0,37.3,30.09,NE,51,0.0,0.0,90,0.00,CLR,,0.00,WeatherDisplay:10.37,2013-03-24 13:08:00,
2013-03-24 06:13:00,39.8,37.4,30.09,NE,51,0.0,0.0,91,0.00,CLR,,0.00,WeatherDisplay:10.37,2013-03-24 13:13:00,
2013-03-24 06:18:00,39.9,37.5,30.09,NE,51,0.0,0.0,91,0.00,CLR,,0.00,WeatherDisplay:10.37,2013-03-24 13:18:00,
2013-03-24 06:23:00,39.3,36.9,30.09,NE,51,1.1,1.1,91,0.00,CLR,,0.00,WeatherDisplay:10.37,2013-03-24 13:23:00,
2013-03-24 06:28:00,39.2,37.1,30.09,NE,51,0.0,0.0,92,0.00,CLR,,0.00,WeatherDisplay:10.37,2013-03-24 13:28:00,
2013-03-24 06:34:00,39.2,37.1,30.09,NE,51,0.0,0.0,92,0.00,CLR,,0.00,WeatherDisplay:10.37,2013-03-24 13:34:00,
2013-03-24 06:39:00,39.2,37.1,30.09,NE,51,0.0,0.0,92,0.00,CLR,,0.00,WeatherDisplay:10.37,2013-03-24 13:39:00,
2013-03-24 06:45:00,39.4,37.5,30.09,NE,51,0.0,0.0,93,0.00,CLR,,0.00,WeatherDisplay:10.37,2013-03-24 13:45:00,
2013-03-24 06:50:00,39.3,37.4,30.09,NE,51,0.0,0.0,93,0.00,CLR,,0.00,WeatherDisplay:10.37,2013-03-24 13:50:00,
2013-03-24 06:55:00,39.3,37.4,30.09,NE,51,0.0,0.3,93,0.00,CLR,,0.00,WeatherDisplay:10.37,2013-03-24 13:55:00,
2013-03-24 07:00:00,39.4,37.5,30.10,NE,41,1.1,0.0,93,0.00,CLR,,0.00,WeatherDisplay:10.37,2013-03-24 14:00:00,
2013-03-24 07:05:00,38.8,36.4,30.10,NE,41,0.0,0.0,91,0.00,CLR,,0.00,WeatherDisplay:10.37,2013-03-24 14:05:00,
2013-03-24 07:10:00,38.4,36.3,30.09,NE,41,0.0,0.0,92,0.00,CLR,,0.00,WeatherDisplay:10.37,2013-03-24 14:10:00,
2013-03-24 07:15:00,38.5,36.7,30.09,NE,41,0.0,0.0,93,0.00,CLR,,0.00,WeatherDisplay:10.37,2013-03-24 14:15:00,
2013-03-24 07:20:00,38.7,36.9,30.10,NE,41,0.0,0.0,93,0.00,CLR,,0.00,WeatherDisplay:10.37,2013-03-24 14:20:00,
2013-03-24 07:25:00,38.6,36.8,30.10,NE,41,0.0,0.0,93,0.00,CLR,,0.00,WeatherDisplay:10.37,2013-03-24 14:25:00,
2013-03-24 07:30:00,38.3,36.2,30.10,NE,41,0.0,0.0,92,0.00,CLR,,0.00,WeatherDisplay:10.37,2013-03-24 14:30:00,
2013-03-24 07:35:00,38.2,36.4,30.10,NE,41,0.0,0.0,93,0.00,CLR,,0.00,WeatherDisplay:10.37,2013-03-24 14:35:00,
2013-03-24 07:40:00,38.5,36.7,30.10,NE,41,0.0,0.0,93,0.00,CLR,,0.00,WeatherDisplay:10.37,2013-03-24 14:40:00,
2013-03-24 07:45:00,38.9,37.0,30.10,NW,316,2.3,2.3,93,0.00,CLR,,0.00,WeatherDisplay:10.37,2013-03-24 14:45:00,
2013-03-24 07:50:00,39.3,37.4,30.10,NNW,340,3.5,3.5,93,0.00,CLR,,0.00,WeatherDisplay:10.37,2013-03-24 14:50:00,
2013-03-24 07:55:00,39.5,37.6,30.11,NNE,19,2.3,2.3,93,0.00,CLR,,0.00,WeatherDisplay:10.37,2013-03-24 14:55:00,
2013-03-24 08:00:00,39.8,37.9,30.11,North,349,2.3,2.3,93,0.00,CLR,,0.00,WeatherDisplay:10.37,2013-03-24 15:00:00,
2013-03-24 08:05:00,40.3,38.4,30.11,NNW,348,2.3,2.3,93,0.00,CLR,,0.00,WeatherDisplay:10.37,2013-03-24 15:05:00,
2013-03-24 08:11:00,40.7,38.8,30.11,North,349,0.0,0.0,93,0.00,CLR,,0.00,WeatherDisplay:10.37,2013-03-24 15:11:00,
2013-03-24 08:16:00,41.3,39.4,30.11,North,353,1.1,1.1,93,0.00,CLR,,0.00,WeatherDisplay:10.37,2013-03-24 15:16:00,
2013-03-24 08:22:00,42.1,39.9,30.10,NNW,346,2.3,2.3,92,0.00,CLR,,0.00,WeatherDisplay:10.37,2013-03-24 15:22:00,
2013-03-24 08:27:00,42.5,40.1,30.10,NNE,12,1.1,1.1,91,0.00,CLR,,0.00,WeatherDisplay:10.37,2013-03-24 15:27:00,
2013-03-24 08:32:00,43.2,40.8,30.10,NNE,15,2.3,2.3,91,0.00,CLR,,0.00,WeatherDisplay:10.37,2013-03-24 15:32:00,
2013-03-24 08:38:00,43.6,40.9,30.10,North,355,1.1,1.1,90,0.00,CLR,,0.00,WeatherDisplay:10.37,2013-03-24 15:38:00,
2013-03-24 08:43:00,44.0,41.3,30.10,NNE,20,1.1,1.1,90,0.00,CLR,,0.00,WeatherDisplay:10.37,2013-03-24 15:43:00,
2013-03-24 08:48:00,44.4,41.4,30.10,NNW,340,0.0,0.1,89,0.00,CLR,,0.00,WeatherDisplay:10.37,2013-03-24 15:48:00,
2013-03-24 08:53:00,44.8,41.5,30.10,NNE,29,0.0,0.0,88,0.00,CLR,,0.00,WeatherDisplay:10.37,2013-03-24 15:53:00,
2013-03-24 08:58:00,45.4,42.1,30.10,NE,36,1.1,1.2,88,0.00,CLR,,0.00,WeatherDisplay:10.37,2013-03-24 15:58:00,
2013-03-24 09:03:00,45.9,42.2,30.10,NE,51,2.3,2.3,87,0.00,CLR,,0.00,WeatherDisplay:10.37,2013-03-24 16:03:00,
2013-03-24 09:08:00,46.7,42.7,30.10,North,4,3.5,3.5,86,0.00,CLR,,0.00,WeatherDisplay:10.37,2013-03-24 16:08:00,
2013-03-24 09:14:00,47.3,43.0,30.10,North,353,2.3,2.3,85,0.00,CLR,,0.00,WeatherDisplay:10.37,2013-03-24 16:14:00,
2013-03-24 09:19:00,47.8,42.9,30.10,ENE,57,3.5,3.5,83,0.00,CLR,,0.00,WeatherDisplay:10.37,2013-03-24 16:19:00,
2013-03-24 09:24:00,48.5,43.6,30.10,NNE,16,3.5,3.5,83,0.00,CLR,,0.00,WeatherDisplay:10.37,2013-03-24 16:24:00,
2013-03-24 09:29:00,49.1,44.2,30.10,NE,36,3.5,3.5,83,0.00,CLR,,0.00,WeatherDisplay:10.37,2013-03-24 16:29:00,
2013-03-24 09:34:00,49.7,43.8,30.10,NE,56,3.5,3.5,80,0.00,CLR,,0.00,WeatherDisplay:10.37,2013-03-24 16:34:00,
2013-03-24 09:39:00,49.9,43.3,30.10,NE,54,3.5,3.5,78,0.00,CLR,,0.00,WeatherDisplay:10.37,2013-03-24 16:39:00,
2013-03-24 09:44:00,50.3,44.0,30.10,ENE,67,3.5,3.5,79,0.00,CLR,,0.00,WeatherDisplay:10.37,2013-03-24 16:44:00,
2013-03-24 09:49:00,50.7,44.1,30.10,East,100,3.5,3.5,78,0.00,CLR,,0.00,WeatherDisplay:10.37,2013-03-24 16:49:00,
2013-03-24 09:54:00,51.0,43.4,30.10,East,82,0.0,0.0,75,0.00,CLR,,0.00,WeatherDisplay:10.37,2013-03-24 16:54:00,
2013-03-24 09:59:00,51.7,44.4,30.10,South,169,2.3,2.3,76,0.00,CLR,,0.00,WeatherDisplay:10.37,2013-03-24 16:59:00,
2013-03-24 10:04:00,52.4,44.4,30.10,SW,214,2.3,2.3,74,0.00,CLR,,0.00,WeatherDisplay:10.37,2013-03-24 17:04:00,
2013-03-24 10:09:00,53.3,44.1,30.10,SW,219,1.1,1.1,71,0.00,CLR,,0.00,WeatherDisplay:10.37,2013-03-24 17:09:00,
2013-03-24 10:14:00,54.0,44.8,30.09,SSE,158,3.5,3.5,71,0.00,CLR,,0.00,WeatherDisplay:10.37,2013-03-24 17:14:00,
2013-03-24 10:19:00,54.5,44.5,30.09,SE,133,3.5,3.5,69,0.00,CLR,,0.00,WeatherDisplay:10.37,2013-03-24 17:19:00,
2013-03-24 10:24:00,55.1,44.7,30.09,SSE,167,3.5,3.5,68,0.00,CLR,,0.00,WeatherDisplay:10.37,2013-03-24 17:24:00,
2013-03-24 10:29:00,55.4,44.6,30.09,SSE,151,3.5,3.5,67,0.00,CLR,,0.00,WeatherDisplay:10.37,2013-03-24 17:29:00,
2013-03-24 10:35:00,56.0,45.2,30.09,SSE,148,3.5,3.5,67,0.00,CLR,,0.00,WeatherDisplay:10.37,2013-03-24 17:35:00,
2013-03-24 10:40:00,56.4,45.6,30.09,SW,232,3.5,3.5,67,0.00,CLR,,0.00,WeatherDisplay:10.37,2013-03-24 17:40:00,
2013-03-24 10:45:00,57.1,45.8,30.09,SE,144,3.0,3.0,66,0.00,CLR,,0.00,WeatherDisplay:10.37,2013-03-24 17:45:00,
2013-03-24 10:50:00,57.5,46.2,30.09,SSE,160,3.5,3.5,66,0.00,CLR,,0.00,WeatherDisplay:10.37,2013-03-24 17:50:00,
2013-03-24 10:55:00,57.9,45.8,30.09,WSW,240,3.5,3.5,64,0.00,CLR,,0.00,WeatherDisplay:10.37,2013-03-24 17:55:00,
2013-03-24 11:00:00,58.0,45.5,30.09,SE,141,5.8,5.8,63,0.00,CLR,,0.00,WeatherDisplay:10.37,2013-03-24 18:00:00,
2013-03-24 11:05:00,58.5,45.9,30.09,South,180,8.1,8.1,63,0.00,CLR,,0.00,WeatherDisplay:10.37,2013-03-24 18:05:00,
2013-03-24 11:10:00,58.8,45.8,30.09,SSW,204,4.0,4.0,62,0.00,CLR,,0.00,WeatherDisplay:10.37,2013-03-24 18:10:00,
2013-03-24 11:15:00,59.2,45.8,30.09,SE,124,5.8,5.8,61,0.00,CLR,,0.00,WeatherDisplay:10.37,2013-03-24 18:15:00,
2013-03-24 11:20:00,59.6,46.1,30.09,SSE,158,5.8,5.8,61,0.00,CLR,,0.00,WeatherDisplay:10.37,2013-03-24 18:20:00,
2013-03-24 11:26:00,60.2,45.8,30.08,SSW,192,6.9,6.9,59,0.00,CLR,,0.00,WeatherDisplay:10.37,2013-03-24 18:26:00,
2013-03-24 11:31:00,60.7,45.8,30.08,SE,143,5.8,5.8,58,0.00,CLR,,0.00,WeatherDisplay:10.37,2013-03-24 18:31:00,
2013-03-24 11:36:00,61.1,46.2,30.08,SSE,149,3.5,3.5,58,0.00,CLR,,0.00,WeatherDisplay:10.37,2013-03-24 18:36:00,
2013-03-24 11:41:00,61.8,45.9,30.08,SSE,150,9.2,9.2,56,0.00,CLR,,0.00,WeatherDisplay:10.37,2013-03-24 18:41:00,
2013-03-24 11:46:00,62.4,47.0,30.08,South,186,6.9,6.9,57,0.00,CLR,,0.00,WeatherDisplay:10.37,2013-03-24 18:46:00,
2013-03-24 11:51:00,62.7,46.8,30.08,SE,146,3.5,3.5,56,0.00,CLR,,0.00,WeatherDisplay:10.37,2013-03-24 18:51:00,
2013-03-24 11:56:00,63.2,46.8,30.08,SE,144,2.3,2.3,55,0.00,CLR,,0.00,WeatherDisplay:10.37,2013-03-24 18:56:00,
2013-03-24 12:01:00,64.4,46.9,30.08,SSW,205,3.5,3.5,53,0.00,CLR,,0.00,WeatherDisplay:10.37,2013-03-24 19:01:00,
2013-03-24 12:06:00,65.4,46.8,30.08,SSE,150,4.6,4.6,51,0.00,CLR,,0.00,WeatherDisplay:10.37,2013-03-24 19:06:00,
2013-03-24 12:11:00,65.3,46.2,30.08,SSE,150,8.1,8.1,50,0.00,CLR,,0.00,WeatherDisplay:10.37,2013-03-24 19:11:00,
2013-03-24 12:16:00,65.5,46.9,30.08,South,183,6.9,6.9,51,0.00,CLR,,0.00,WeatherDisplay:10.37,2013-03-24 19:16:00,
2013-03-24 12:21:00,65.6,46.5,30.08,ESE,122,9.2,9.2,50,0.00,CLR,,0.00,WeatherDisplay:10.37,2013-03-24 19:21:00,
2013-03-24 12:26:00,65.5,47.9,30.08,ESE,122,4.0,4.0,53,0.00,CLR,,0.00,WeatherDisplay:10.37,2013-03-24 19:26:00,
2013-03-24 12:31:00,65.9,48.3,30.07,SE,131,3.5,3.5,53,0.00,CLR,,0.00,WeatherDisplay:10.37,2013-03-24 19:31:00,
2013-03-24 12:36:00,66.2,48.0,30.07,East,79,3.5,3.5,52,0.00,CLR,,0.00,WeatherDisplay:10.37,2013-03-24 19:36:00,
2013-03-24 12:41:00,66.6,48.9,30.07,SE,124,5.8,5.8,53,0.00,CLR,,0.00,WeatherDisplay:10.37,2013-03-24 19:41:00,
2013-03-24 12:46:00,67.4,49.7,30.07,South,187,8.1,8.1,53,0.00,CLR,,0.00,WeatherDisplay:10.37,2013-03-24 19:46:00,
2013-03-24 12:52:00,68.1,47.1,30.07,South,172,8.0,8.0,47,0.00,CLR,,0.00,WeatherDisplay:10.37,2013-03-24 19:52:00,
2013-03-24 12:57:00,68.3,46.1,30.07,ESE,110,5.0,5.0,45,0.00,CLR,,0.00,WeatherDisplay:10.37,2013-03-24 19:57:00,
2013-03-24 13:02:00,68.0,45.9,30.07,ESE,122,3.5,3.5,45,0.00,CLR,,0.00,WeatherDisplay:10.37,2013-03-24 20:02:00,
2013-03-24 13:07:00,68.4,46.2,30.07,ESE,113,4.6,4.6,45,0.00,CLR,,0.00,WeatherDisplay:10.37,2013-03-24 20:07:00,
2013-03-24 13:12:00,68.9,46.7,30.07,ESE,110,3.5,3.5,45,0.00,CLR,,0.00,WeatherDisplay:10.37,2013-03-24 20:12:00,
2013-03-24 13:18:00,68.8,45.4,30.07,SE,131,3.5,3.5,43,0.00,CLR,,0.00,WeatherDisplay:10.37,2013-03-24 20:18:00,
2013-03-24 13:23:00,69.7,45.6,30.06,ESE,114,5.8,5.8,42,0.00,CLR,,0.00,WeatherDisplay:10.37,2013-03-24 20:23:00,
2013-03-24 13:28:00,69.5,46.0,30.06,ESE,111,2.3,2.3,43,0.00,CLR,,0.00,WeatherDisplay:10.37,2013-03-24 20:28:00,
2013-03-24 13:33:00,69.6,47.9,30.05,SE,134,3.5,3.5,46,0.00,CLR,,0.00,WeatherDisplay:10.37,2013-03-24 20:33:00,
2013-03-24 13:38:00,70.3,46.7,30.05,SE,131,3.5,3.5,43,0.00,CLR,,0.00,WeatherDisplay:10.37,2013-03-24 20:38:00,
2013-03-24 13:43:00,70.2,46.0,30.05,SE,146,4.6,4.6,42,0.00,CLR,,0.00,WeatherDisplay:10.37,2013-03-24 20:43:00,
2013-03-24 13:48:00,70.2,46.6,30.04,SE,129,6.0,6.0,43,0.00,CLR,,0.00,WeatherDisplay:10.37,2013-03-24 20:48:00,
2013-03-24 13:53:00,70.3,47.3,30.04,SSE,153,4.6,4.7,44,0.00,CLR,,0.00,WeatherDisplay:10.37,2013-03-24 20:53:00,
2013-03-24 13:59:00,70.6,47.0,30.04,South,176,11.5,11.5,43,0.00,CLR,,0.00,WeatherDisplay:10.37,2013-03-24 20:59:00,
2013-03-24 14:04:00,70.5,46.3,30.03,SSE,158,5.0,5.0,42,0.00,CLR,,0.00,WeatherDisplay:10.37,2013-03-24 21:04:00,
2013-03-24 14:09:00,70.9,46.0,30.03,SSE,162,6.0,6.0,41,0.00,CLR,,0.00,WeatherDisplay:10.37,2013-03-24 21:09:00,
2013-03-24 14:14:00,72.1,47.1,30.03,ESE,115,5.8,5.8,41,0.00,CLR,,0.00,WeatherDisplay:10.37,2013-03-24 21:14:00,
2013-03-24 14:19:00,71.9,45.6,30.02,SSW,204,4.6,4.8,39,0.00,CLR,,0.00,WeatherDisplay:10.37,2013-03-24 21:19:00,
2013-03-24 14:25:00,72.0,46.3,30.02,SSE,148,5.8,5.8,40,0.00,CLR,,0.00,WeatherDisplay:10.37,2013-03-24 21:25:00,
2013-03-24 14:30:00,72.0,45.7,30.02,SE,133,3.5,3.5,39,0.00,CLR,,0.00,WeatherDisplay:10.37,2013-03-24 21:30:00,
2013-03-24 14:35:00,71.8,46.2,30.01,SE,129,8.1,8.1,40,0.00,CLR,,0.00,WeatherDisplay:10.37,2013-03-24 21:35:00,
2013-03-24 14:40:00,71.7,45.4,30.01,SSE,161,5.8,5.8,39,0.00,CLR,,0.00,WeatherDisplay:10.37,2013-03-24 21:40:00,
2013-03-24 14:45:00,72.4,46.7,30.01,West,269,3.5,3.5,40,0.00,CLR,,0.00,WeatherDisplay:10.37,2013-03-24 21:45:00,
2013-03-24 14:50:00,73.8,47.3,30.01,South,169,7.0,7.0,39,0.00,CLR,,0.00,WeatherDisplay:10.37,2013-03-24 21:50:00,
2013-03-24 14:55:00,74.0,47.5,30.01,SSW,201,4.6,4.6,39,0.00,CLR,,0.00,WeatherDisplay:10.37,2013-03-24 21:55:00,
2013-03-24 15:00:00,74.0,46.1,30.01,South,169,6.9,6.9,37,0.00,CLR,,0.00,WeatherDisplay:10.37,2013-03-24 22:00:00,
2013-03-24 15:05:00,73.6,46.4,30.01,South,172,5.0,5.0,38,0.00,CLR,,0.00,WeatherDisplay:10.37,2013-03-24 22:05:00,
2013-03-24 15:10:00,73.6,47.1,30.00,SSE,151,3.5,3.5,39,0.00,CLR,,0.00,WeatherDisplay:10.37,2013-03-24 22:10:00,
2013-03-24 15:15:00,73.4,45.5,30.00,SE,136,11.5,11.5,37,0.00,CLR,,0.00,WeatherDisplay:10.37,2013-03-24 22:15:00,
2013-03-24 15:20:00,73.1,44.5,30.00,SSE,157,5.0,5.0,36,0.00,CLR,,0.00,WeatherDisplay:10.37,2013-03-24 22:20:00,
2013-03-24 15:25:00,73.3,44.0,30.00,SSW,193,2.3,2.3,35,0.00,CLR,,0.00,WeatherDisplay:10.37,2013-03-24 22:25:00,
2013-03-24 15:30:00,73.5,44.2,30.00,ESE,115,3.5,3.5,35,0.00,CLR,,0.00,WeatherDisplay:10.37,2013-03-24 22:30:00,
2013-03-24 15:35:00,73.5,43.4,30.00,SE,139,8.1,8.1,34,0.00,CLR,,0.00,WeatherDisplay:10.37,2013-03-24 22:35:00,
2013-03-24 15:40:00,73.2,44.6,29.99,ESE,117,3.5,3.5,36,0.00,CLR,,0.00,WeatherDisplay:10.37,2013-03-24 22:40:00,
2013-03-24 15:45:00,73.5,45.6,29.99,ESE,115,5.8,5.8,37,0.00,CLR,,0.00,WeatherDisplay:10.37,2013-03-24 22:45:00,
2013-03-24 15:50:00,73.3,46.2,29.99,SE,129,3.5,3.5,38,0.00,CLR,,0.00,WeatherDisplay:10.37,2013-03-24 22:50:00,
2013-03-24 15:55:00,73.4,46.2,29.98,SE,135,5.8,5.8,38,0.00,CLR,,0.00,WeatherDisplay:10.37,2013-03-24 22:55:00,
2013-03-24 16:00:00,74.2,47.0,29.98,SE,129,4.6,4.6,38,0.00,CLR,,0.00,WeatherDisplay:10.37,2013-03-24 23:00:00,
2013-03-24 16:05:00,73.7,46.5,29.98,SSE,166,8.1,8.1,38,0.00,CLR,,0.00,WeatherDisplay:10.37,2013-03-24 23:05:00,
2013-03-24 16:10:00,73.5,45.6,29.98,ESE,122,5.8,5.8,37,0.00,CLR,,0.00,WeatherDisplay:10.37,2013-03-24 23:10:00,
2013-03-24 16:15:00,73.5,47.0,29.98,SE,142,10.0,10.0,39,0.00,CLR,,0.00,WeatherDisplay:10.37,2013-03-24 23:15:00,
2013-03-24 16:20:00,74.4,46.4,29.97,SSE,152,11.5,11.5,37,0.00,CLR,,0.00,WeatherDisplay:10.37,2013-03-24 23:20:00,
2013-03-24 16:25:00,74.1,46.2,29.97,SE,142,10.4,10.4,37,0.00,CLR,,0.00,WeatherDisplay:10.37,2013-03-24 23:25:00,
2013-03-24 16:30:00,73.7,45.8,29.97,South,174,6.0,6.0,37,0.00,CLR,,0.00,WeatherDisplay:10.37,2013-03-24 23:30:00,
2013-03-24 16:36:00,73.5,45.6,29.97,SE,134,5.8,5.8,37,0.00,CLR,,0.00,WeatherDisplay:10.37,2013-03-24 23:36:00,
2013-03-24 16:41:00,73.1,45.3,29.97,SE,128,4.6,4.6,37,0.00,CLR,,0.00,WeatherDisplay:10.37,2013-03-24 23:41:00,
2013-03-24 16:46:00,72.6,46.2,29.97,ESE,118,5.8,5.8,39,0.00,CLR,,0.00,WeatherDisplay:10.37,2013-03-24 23:46:00,
2013-03-24 16:51:00,72.2,45.2,29.97,ESE,122,3.5,3.5,38,0.00,CLR,,0.00,WeatherDisplay:10.37,2013-03-24 23:51:00,
2013-03-24 16:56:00,72.4,46.7,29.97,SSE,153,8.1,8.1,40,0.00,CLR,,0.00,WeatherDisplay:10.37,2013-03-24 23:56:00,
2013-03-24 17:02:00,72.2,45.9,29.96,SE,128,4.6,4.6,39,0.00,CLR,,0.00,WeatherDisplay:10.37,2013-03-25 00:02:00,
2013-03-24 17:07:00,71.8,45.5,29.96,SE,124,3.5,3.5,39,0.00,CLR,,0.00,WeatherDisplay:10.37,2013-03-25 00:07:00,
2013-03-24 17:12:00,71.6,45.3,29.97,SSE,156,9.2,9.2,39,0.00,CLR,,0.00,WeatherDisplay:10.37,2013-03-25 00:12:00,
2013-03-24 17:17:00,71.6,46.0,29.96,SE,128,4.6,4.6,40,0.00,CLR,,0.00,WeatherDisplay:10.37,2013-03-25 00:17:00,
2013-03-24 17:22:00,71.4,46.5,29.96,SSE,153,6.9,6.9,41,0.00,CLR,,0.00,WeatherDisplay:10.37,2013-03-25 00:22:00,
2013-03-24 17:27:00,71.3,47.0,29.96,SSE,162,11.5,11.5,42,0.00,CLR,,0.00,WeatherDisplay:10.37,2013-03-25 00:27:00,
2013-03-24 17:32:00,71.0,48.0,29.96,SE,139,3.5,3.5,44,0.00,CLR,,0.00,WeatherDisplay:10.37,2013-03-25 00:32:00,
2013-03-24 17:37:00,70.9,47.9,29.96,SSE,155,9.2,9.2,44,0.00,CLR,,0.00,WeatherDisplay:10.37,2013-03-25 00:37:00,
2013-03-24 17:42:00,70.9,49.1,29.95,South,174,4.6,4.6,46,0.00,CLR,,0.00,WeatherDisplay:10.37,2013-03-25 00:42:00,
2013-03-24 17:47:00,70.6,50.0,29.95,SSE,159,10.4,10.4,48,0.00,CLR,,0.00,WeatherDisplay:10.37,2013-03-25 00:47:00,
2013-03-24 17:52:00,70.2,50.7,29.95,SSE,151,8.1,8.1,50,0.00,CLR,,0.00,WeatherDisplay:10.37,2013-03-25 00:52:00,
2013-03-24 17:57:00,70.0,51.0,29.95,SSE,166,4.0,4.0,51,0.00,CLR,,0.00,WeatherDisplay:10.37,2013-03-25 00:57:00,
2013-03-24 18:02:00,69.9,50.9,29.96,SSW,203,6.9,6.9,51,0.00,CLR,,0.00,WeatherDisplay:10.37,2013-03-25 01:02:00,
2013-03-24 18:07:00,69.7,51.3,29.96,SSE,167,10.4,10.4,52,0.00,CLR,,0.00,WeatherDisplay:10.37,2013-03-25 01:07:00,
2013-03-24 18:13:00,69.4,51.5,29.95,ESE,121,7.0,7.0,53,0.00,CLR,,0.00,WeatherDisplay:10.37,2013-03-25 01:13:00,
2013-03-24 18:18:00,69.4,52.0,29.96,South,169,9.2,9.2,54,0.00,CLR,,0.00,WeatherDisplay:10.37,2013-03-25 01:18:00,
2013-03-24 18:23:00,69.2,51.8,29.96,SE,144,8.1,8.1,54,0.00,CLR,,0.00,WeatherDisplay:10.37,2013-03-25 01:23:00,
2013-03-24 18:28:00,68.9,52.1,29.96,SSE,157,6.9,6.9,55,0.00,CLR,,0.00,WeatherDisplay:10.37,2013-03-25 01:28:00,
2013-03-24 18:33:00,68.6,51.8,29.96,SSE,152,8.1,8.1,55,0.00,CLR,,0.00,WeatherDisplay:10.37,2013-03-25 01:33:00,
2013-03-24 18:38:00,68.2,51.9,29.96,SSE,164,3.5,3.5,56,0.00,CLR,,0.00,WeatherDisplay:10.37,2013-03-25 01:38:00,
2013-03-24 18:43:00,67.5,51.7,29.95,SE,124,5.0,5.0,57,0.00,CLR,,0.00,WeatherDisplay:10.37,2013-03-25 01:43:00,
2013-03-24 18:48:00,66.9,51.2,29.96,SE,134,3.5,3.5,57,0.00,CLR,,0.00,WeatherDisplay:10.37,2013-03-25 01:48:00,
2013-03-24 18:53:00,66.2,50.5,29.96,SE,129,4.6,4.6,57,0.00,CLR,,0.00,WeatherDisplay:10.37,2013-03-25 01:53:00,
2013-03-24 18:58:00,65.4,50.2,29.96,ESE,123,3.5,3.5,58,0.00,CLR,,0.00,WeatherDisplay:10.37,2013-03-25 01:58:00,
2013-03-24 19:03:00,64.7,50.0,29.96,SE,124,5.0,5.0,59,0.00,CLR,,0.00,WeatherDisplay:10.37,2013-03-25 02:03:00,
2013-03-24 19:08:00,64.2,50.5,29.96,SE,131,3.5,3.5,61,0.00,CLR,,0.00,WeatherDisplay:10.37,2013-03-25 02:08:00,
2013-03-24 19:13:00,63.7,50.0,29.96,SE,135,6.9,6.9,61,0.00,CLR,,0.00,WeatherDisplay:10.37,2013-03-25 02:13:00,
2013-03-24 19:18:00,63.3,50.1,29.96,SE,139,8.1,8.1,62,0.00,CLR,,0.00,WeatherDisplay:10.37,2013-03-25 02:18:00,
2013-03-24 19:23:00,63.0,49.8,29.97,SSE,150,5.8,5.8,62,0.00,CLR,,0.00,WeatherDisplay:10.37,2013-03-25 02:23:00,
2013-03-24 19:29:00,62.6,49.8,29.96,SSE,162,3.5,3.5,63,0.00,CLR,,0.00,WeatherDisplay:10.37,2013-03-25 02:29:00,
2013-03-24 19:34:00,62.2,49.4,29.97,South,183,5.8,5.8,63,0.00,CLR,,0.00,WeatherDisplay:10.37,2013-03-25 02:34:00,
2013-03-24 19:39:00,62.0,49.3,29.97,SE,131,4.6,4.6,63,0.00,CLR,,0.00,WeatherDisplay:10.37,2013-03-25 02:39:00,
2013-03-24 19:44:00,61.7,49.0,29.97,South,186,3.5,3.5,63,0.00,CLR,,0.00,WeatherDisplay:10.37,2013-03-25 02:44:00,
2013-03-24 19:49:00,61.5,48.8,29.97,SSE,168,7.0,7.0,63,0.00,CLR,,0.00,WeatherDisplay:10.37,2013-03-25 02:49:00,
2013-03-24 19:54:00,61.3,49.0,29.97,South,176,4.6,4.6,64,0.00,CLR,,0.00,WeatherDisplay:10.37,2013-03-25 02:54:00,
2013-03-24 20:00:00,61.2,48.9,29.97,SSE,159,8.1,8.1,64,0.00,CLR,,0.00,WeatherDisplay:10.37,2013-03-25 03:00:00,
2013-03-24 20:05:00,61.0,49.1,29.97,SSE,155,6.9,6.9,65,0.00,CLR,,0.00,WeatherDisplay:10.37,2013-03-25 03:05:00,
2013-03-24 20:10:00,60.7,49.3,29.97,SSE,163,4.6,4.6,66,0.00,CLR,,0.00,WeatherDisplay:10.37,2013-03-25 03:10:00,
2013-03-24 20:15:00,60.5,49.9,29.97,SSE,160,6.9,6.9,68,0.00,CLR,,0.00,WeatherDisplay:10.37,2013-03-25 03:15:00,
2013-03-24 20:20:00,60.1,49.5,29.97,SSE,162,4.6,4.6,68,0.00,CLR,,0.00,WeatherDisplay:10.37,2013-03-25 03:20:00,
2013-03-24 20:25:00,59.8,49.6,29.97,South,170,3.5,3.5,69,0.00,CLR,,0.00,WeatherDisplay:10.37,2013-03-25 03:25:00,
2013-03-24 20:30:00,59.6,49.8,29.97,SSE,150,4.0,4.0,70,0.00,CLR,,0.00,WeatherDisplay:10.37,2013-03-25 03:30:00,
2013-03-24 20:36:00,59.2,49.8,29.98,SSW,210,3.5,3.5,71,0.00,CLR,,0.00,WeatherDisplay:10.37,2013-03-25 03:36:00,
2013-03-24 20:41:00,58.8,49.4,29.98,South,190,2.3,2.3,71,0.00,CLR,,0.00,WeatherDisplay:10.37,2013-03-25 03:41:00,
2013-03-24 20:46:00,58.5,49.5,29.97,SSW,200,3.5,3.5,72,0.00,CLR,,0.00,WeatherDisplay:10.37,2013-03-25 03:46:00,
2013-03-24 20:52:00,58.2,49.2,29.98,SW,233,2.3,2.3,72,0.00,CLR,,0.00,WeatherDisplay:10.37,2013-03-25 03:52:00,
2013-03-24 20:57:00,58.0,49.0,29.98,South,177,3.5,3.5,72,0.00,CLR,,0.00,WeatherDisplay:10.37,2013-03-25 03:57:00,
2013-03-24 21:00:00,57.8,49.2,29.98,SSW,210,3.5,3.5,73,0.00,CLR,,0.00,WeatherDisplay:10.37,2013-03-25 04:00:00,
2013-03-24 21:02:00,57.8,49.2,29.98,SSW,211,2.3,2.3,73,0.00,CLR,,0.00,WeatherDisplay:10.37,2013-03-25 04:02:00,
2013-03-24 21:03:00,57.8,49.2,29.98,SSE,153,2.3,2.3,73,0.00,CLR,,0.00,WeatherDisplay:10.37,2013-03-25 04:03:00,
2013-03-24 21:08:00,57.6,49.0,29.98,SE,131,3.5,3.5,73,0.00,CLR,,0.00,WeatherDisplay:10.37,2013-03-25 04:08:00,
2013-03-24 21:13:00,57.3,48.7,29.98,SSE,154,3.5,3.5,73,0.00,CLR,,0.00,WeatherDisplay:10.37,2013-03-25 04:13:00,
2013-03-24 21:18:00,57.0,48.8,29.99,SSE,165,1.1,1.1,74,0.00,CLR,,0.00,WeatherDisplay:10.37,2013-03-25 04:18:00,
2013-03-24 21:23:00,56.7,48.9,29.98,SSE,163,3.5,3.5,75,0.00,CLR,,0.00,WeatherDisplay:10.37,2013-03-25 04:23:00,
2013-03-24 21:28:00,56.5,48.7,29.98,SSE,162,3.5,3.5,75,0.00,CLR,,0.00,WeatherDisplay:10.37,2013-03-25 04:28:00,
2013-03-24 21:33:00,56.4,48.9,29.99,SSE,158,3.5,3.5,76,0.00,CLR,,0.00,WeatherDisplay:10.37,2013-03-25 04:33:00,
2013-03-24 21:39:00,56.2,48.7,29.99,SSE,160,3.5,3.5,76,0.00,CLR,,0.00,WeatherDisplay:10.37,2013-03-25 04:39:00,
2013-03-24 21:44:00,56.0,48.9,29.99,SE,146,2.3,2.3,77,0.00,CLR,,0.00,WeatherDisplay:10.37,2013-03-25 04:44:00,
2013-03-24 21:49:00,55.7,48.6,29.99,South,170,2.3,2.3,77,0.00,CLR,,0.00,WeatherDisplay:10.37,2013-03-25 04:49:00,
2013-03-24 21:54:00,55.3,48.6,29.99,SSE,156,3.5,3.5,78,0.00,CLR,,0.00,WeatherDisplay:10.37,2013-03-25 04:54:00,
2013-03-24 21:59:00,55.1,48.7,29.99,SSE,160,3.5,3.5,79,0.00,CLR,,0.00,WeatherDisplay:10.37,2013-03-25 04:59:00,
2013-03-24 22:04:00,55.0,48.6,29.99,SE,143,4.0,4.0,79,0.00,CLR,,0.00,WeatherDisplay:10.37,2013-03-25 05:04:00,
2013-03-24 22:09:00,54.9,48.5,29.99,South,172,3.5,3.5,79,0.00,CLR,,0.00,WeatherDisplay:10.37,2013-03-25 05:09:00,
2013-03-24 22:14:00,54.7,48.3,29.99,South,172,4.6,4.6,79,0.00,CLR,,0.00,WeatherDisplay:10.37,2013-03-25 05:14:00,
2013-03-24 22:19:00,54.6,48.2,29.99,SSE,166,3.5,3.5,79,0.00,CLR,,0.00,WeatherDisplay:10.37,2013-03-25 05:19:00,
2013-03-24 22:24:00,54.5,48.1,30.00,SSE,154,3.5,3.5,79,0.00,CLR,,0.00,WeatherDisplay:10.37,2013-03-25 05:24:00,
2013-03-24 22:29:00,54.3,47.9,30.00,SSE,162,2.3,2.3,79,0.00,CLR,,0.00,WeatherDisplay:10.37,2013-03-25 05:29:00,
2013-03-24 22:34:00,54.1,47.7,30.00,SSE,159,4.6,4.6,79,0.00,CLR,,0.00,WeatherDisplay:10.37,2013-03-25 05:34:00,
2013-03-24 22:39:00,53.9,47.2,30.00,SE,133,2.3,2.3,78,0.00,CLR,,0.00,WeatherDisplay:10.37,2013-03-25 05:39:00,
2013-03-24 22:44:00,53.6,46.6,30.00,SE,144,2.3,2.3,77,0.00,CLR,,0.00,WeatherDisplay:10.37,2013-03-25 05:44:00,
2013-03-24 22:49:00,53.4,46.4,29.99,SSE,166,5.8,5.8,77,0.00,CLR,,0.00,WeatherDisplay:10.37,2013-03-25 05:49:00,
2013-03-24 22:54:00,53.2,45.8,30.00,South,173,4.6,4.6,76,0.00,CLR,,0.00,WeatherDisplay:10.37,2013-03-25 05:54:00,
2013-03-24 23:00:00,53.0,45.6,30.00,SSW,207,4.6,4.6,76,0.00,CLR,,0.00,WeatherDisplay:10.37,2013-03-25 06:00:00,
2013-03-24 23:05:00,53.0,45.6,30.00,SSE,167,3.5,3.5,76,0.00,CLR,,0.00,WeatherDisplay:10.37,2013-03-25 06:05:00,
2013-03-24 23:10:00,52.9,45.5,30.00,WSW,249,3.5,3.5,76,0.00,CLR,,0.00,WeatherDisplay:10.37,2013-03-25 06:10:00,
2013-03-24 23:16:00,52.7,45.3,30.00,SSE,162,2.3,2.3,76,0.00,CLR,,0.00,WeatherDisplay:10.37,2013-03-25 06:16:00,
2013-03-24 23:21:00,52.4,45.4,30.00,West,263,2.3,2.3,77,0.00,CLR,,0.00,WeatherDisplay:10.37,2013-03-25 06:21:00,
2013-03-24 23:26:00,52.2,45.2,30.00,SSW,211,1.0,1.0,77,0.00,CLR,,0.00,WeatherDisplay:10.37,2013-03-25 06:26:00,
2013-03-24 23:31:00,51.9,45.3,30.00,SSE,149,1.1,1.1,78,0.00,CLR,,0.00,WeatherDisplay:10.37,2013-03-25 06:31:00,
2013-03-24 23:36:00,51.7,45.4,30.00,SSE,161,1.1,1.1,79,0.00,CLR,,0.00,WeatherDisplay:10.37,2013-03-25 06:36:00,
2013-03-24 23:41:00,51.4,45.4,30.00,SW,235,1.1,1.1,80,0.00,CLR,,0.00,WeatherDisplay:10.37,2013-03-25 06:41:00,
2013-03-24 23:47:00,51.3,45.3,30.00,SSW,193,1.1,1.1,80,0.00,CLR,,0.00,WeatherDisplay:10.37,2013-03-25 06:47:00,
2013-03-24 23:52:00,51.1,45.1,30.00,SSE,167,2.3,2.3,80,0.00,CLR,,0.00,WeatherDisplay:10.37,2013-03-25 06:52:00,
2013-03-24 23:57:00,51.0,45.4,30.00,WSW,241,1.1,1.1,81,0.00,CLR,,0.00,WeatherDisplay:10.37,2013-03-25 06:57:00,